Time;durP1;ratioP1;P1;durP2;ratioP2;P2;SDS_P1;SDS_P2;PMS_P1;PMS_P2;Temp;Humidity;BMP_temperature;BMP_pressure;BME280_temperature;BME280_humidity;BME280_pressure;Samples;Min_cycle;Max_cycle;Signal;HPM_P1;HPM_P2
2024/03/16 00:01:37;;;;;;;;;;;;;;;5.93;100.00;100100.88;5035182;28;800;-59
2024/03/16 00:04:04;;;;;;;;;;;;;;;5.96;100.00;100110.34;5035255;28;948;-59
2024/03/16 00:06:31;;;;;;;;;;;;;;;5.98;100.00;100110.00;5035154;28;859;-59
2024/03/16 00:08:58;;;;;;;;;;;;;;;6.00;100.00;100107.69;5035136;28;903;-60
2024/03/16 00:11:27;;;;;;;;;;;;;;;6.03;100.00;100106.94;5017249;28;1451;-59
2024/03/16 00:13:54;;;;;;;;;;;;;;;6.03;100.00;100104.97;5035267;28;1890;-59
2024/03/16 00:16:21;;;;;;;;;;;;;;;5.98;100.00;100107.25;5035275;28;1246;-59
2024/03/16 00:18:48;;;;;;;;;;;;;;;5.93;100.00;100116.50;5035055;28;1294;-59
2024/03/16 00:21:15;;;;;;;;;;;;;;;5.91;100.00;100114.16;5035100;28;1227;-59
2024/03/16 00:23:43;;;;;;;;;;;;;;;5.93;100.00;100114.59;5035278;28;857;-58
2024/03/16 00:26:09;;;;;;;;;;;;;;;5.93;100.00;100111.84;5035046;28;902;-59
2024/03/16 00:28:36;;;;;;;;;;;;;;;5.87;100.00;100110.56;5034915;28;824;-59
2024/03/16 00:31:04;;;;;;;;;;;;;;;5.79;100.00;100113.53;5035030;28;953;-59
2024/03/16 00:33:30;;;;;;;;;;;;;;;5.71;100.00;100110.63;5034883;28;1918;-59
2024/03/16 00:35:57;;;;;;;;;;;;;;;5.67;100.00;100106.22;5034715;28;894;-59
2024/03/16 00:38:26;;;;;;;;;;;;;;;5.65;100.00;100111.28;5034872;28;880;-58
2024/03/16 00:40:53;;;;;;;;;;;;;;;5.64;100.00;100106.97;5034503;28;1251;-58
2024/03/16 00:43:20;;;;;;;;;;;;;;;5.62;100.00;100101.84;5034552;28;857;-58
2024/03/16 00:45:47;;;;;;;;;;;;;;;5.63;100.00;100105.34;5033249;28;895;-58
2024/03/16 00:48:14;;;;;;;;;;;;;;;5.61;100.00;100102.19;5034450;28;919;-58
2024/03/16 00:50:41;;;;;;;;;;;;;;;5.58;100.00;100103.72;5034480;28;848;-58
2024/03/16 00:53:09;;;;;;;;;;;;;;;5.59;100.00;100109.97;5034657;28;1949;-58
2024/03/16 00:55:37;;;;;;;;;;;;;;;5.59;100.00;100104.50;5034303;28;879;-59
2024/03/16 00:58:04;;;;;;;;;;;;;;;5.57;100.00;100091.16;5034272;28;898;-59
2024/03/16 01:00:31;;;;;;;;;;;;;;;5.54;100.00;100097.34;5016397;28;1372;-58
2024/03/16 01:02:59;;;;;;;;;;;;;;;5.49;100.00;100087.47;5034160;28;876;-59
2024/03/16 01:05:27;;;;;;;;;;;;;;;5.42;100.00;100094.75;5034052;28;856;-59
2024/03/16 01:07:55;;;;;;;;;;;;;;;5.30;100.00;100082.78;5034090;28;939;-58
2024/03/16 01:10:22;;;;;;;;;;;;;;;5.22;100.00;100080.25;5034032;28;883;-58
2024/03/16 01:12:49;;;;;;;;;;;;;;;5.06;100.00;100083.06;5033811;28;1914;-59
2024/03/16 01:15:16;;;;;;;;;;;;;;;4.87;100.00;100078.34;5016172;28;1394;-58
2024/03/16 01:17:43;;;;;;;;;;;;;;;4.70;100.00;100072.09;5033798;28;929;-58
2024/03/16 01:20:10;;;;;;;;;;;;;;;4.61;100.00;100074.22;5033911;28;843;-58
2024/03/16 01:22:37;;;;;;;;;;;;;;;4.56;100.00;100076.44;5033734;28;1067;-58
2024/03/16 01:25:04;;;;;;;;;;;;;;;4.48;100.00;100080.94;5033797;28;867;-59
2024/03/16 01:27:36;;;;;;;;;;;;;;;4.42;100.00;100082.38;5033626;28;856;-59
2024/03/16 01:30:03;;;;;;;;;;;;;;;4.30;100.00;100083.25;5033944;28;808;-59
2024/03/16 01:32:30;;;;;;;;;;;;;;;4.21;100.00;100083.44;5033620;28;832;-58
2024/03/16 01:34:57;;;;;;;;;;;;;;;4.13;100.00;100089.06;5033427;28;1897;-59
2024/03/16 01:37:24;;;;;;;;;;;;;;;4.04;100.00;100087.28;5033474;28;858;-59
2024/03/16 01:39:51;;;;;;;;;;;;;;;4.02;100.00;100086.06;5015698;28;1371;-59
2024/03/16 01:42:18;;;;;;;;;;;;;;;3.84;100.00;100075.44;5033418;28;895;-60
2024/03/16 01:45:06;;;;;;;;;;;;;;;3.76;100.00;100084.59;5015446;28;1322;-59
2024/03/16 01:47:33;;;;;;;;;;;;;;;3.65;100.00;100083.53;5015434;28;1271;-59
2024/03/16 01:50:00;;;;;;;;;;;;;;;3.61;100.00;100086.16;5033165;28;883;-59
2024/03/16 01:52:27;;;;;;;;;;;;;;;3.58;100.00;100088.78;5015452;28;1213;-58
2024/03/16 01:54:54;;;;;;;;;;;;;;;3.51;100.00;100083.91;5032955;28;1914;-58
2024/03/16 01:57:21;;;;;;;;;;;;;;;3.40;100.00;100082.81;5032678;28;867;-59
2024/03/16 01:59:52;;;;;;;;;;;;;;;3.27;100.00;100077.41;5033089;28;895;-59
2024/03/16 02:02:36;;;;;;;;;;;;;;;3.14;100.00;100086.78;5033079;28;891;-60
2024/03/16 02:05:06;;;;;;;;;;;;;;;3.11;100.00;100092.13;5015177;28;1351;-59
2024/03/16 02:07:34;;;;;;;;;;;;;;;3.26;100.00;100089.47;5032835;28;875;-59
2024/03/16 02:10:03;;;;;;;;;;;;;;;3.31;100.00;100087.63;5033017;28;856;-59
2024/03/16 02:12:29;;;;;;;;;;;;;;;3.31;100.00;100088.44;5014885;28;1304;-59
2024/03/16 02:14:56;;;;;;;;;;;;;;;3.39;100.00;100092.97;5032556;28;1969;-59
2024/03/16 02:17:23;;;;;;;;;;;;;;;3.51;100.00;100094.06;5032714;28;863;-59
2024/03/16 02:19:50;;;;;;;;;;;;;;;3.62;100.00;100089.66;5014880;28;1364;-59
2024/03/16 02:22:18;;;;;;;;;;;;;;;3.72;100.00;100091.91;5014852;28;1296;-60
2024/03/16 02:24:45;;;;;;;;;;;;;;;3.80;100.00;100092.91;5032592;28;848;-59
2024/03/16 02:27:12;;;;;;;;;;;;;;;3.89;100.00;100093.53;5032607;28;817;-59
2024/03/16 02:29:40;;;;;;;;;;;;;;;3.91;100.00;100096.72;5014791;28;1252;-59
2024/03/16 02:32:09;;;;;;;;;;;;;;;3.98;100.00;100101.56;5032430;28;914;-59
2024/03/16 02:34:36;;;;;;;;;;;;;;;3.96;100.00;100101.91;5032572;28;1890;-59
2024/03/16 02:37:07;;;;;;;;;;;;;;;3.99;100.00;100095.75;5032674;28;926;-59
2024/03/16 02:39:34;;;;;;;;;;;;;;;4.08;100.00;100098.34;5032276;28;848;-59
2024/03/16 02:42:05;;;;;;;;;;;;;;;4.19;100.00;100096.66;5014439;28;1314;-59
2024/03/16 02:44:32;;;;;;;;;;;;;;;4.25;100.00;100100.72;5032335;28;891;-59
2024/03/16 02:46:59;;;;;;;;;;;;;;;4.28;100.00;100110.97;5032223;28;840;-59
2024/03/16 02:49:27;;;;;;;;;;;;;;;4.37;100.00;100105.31;5032234;28;864;-59
2024/03/16 02:51:54;;;;;;;;;;;;;;;4.45;100.00;100106.28;5032066;28;1258;-59
2024/03/16 02:54:21;;;;;;;;;;;;;;;4.59;100.00;100109.38;5032090;28;1952;-59
2024/03/16 02:56:49;;;;;;;;;;;;;;;4.67;100.00;100108.41;5031980;28;927;-59
2024/03/16 02:59:15;;;;;;;;;;;;;;;4.68;100.00;100106.47;5032049;28;848;-59
2024/03/16 03:01:42;;;;;;;;;;;;;;;4.69;100.00;100108.84;5032031;28;907;-60
2024/03/16 03:04:09;;;;;;;;;;;;;;;4.74;100.00;100105.03;5014185;28;1328;-59
2024/03/16 03:06:38;;;;;;;;;;;;;;;4.79;100.00;100110.22;5014154;28;1293;-59
2024/03/16 03:09:07;;;;;;;;;;;;;;;4.79;100.00;100115.72;5031128;28;888;-59
2024/03/16 03:11:37;;;;;;;;;;;;;;;4.79;100.00;100112.97;5031801;28;1127;-59
2024/03/16 03:14:06;;;;;;;;;;;;;;;4.84;100.00;100109.97;5031795;28;1902;-59
2024/03/16 03:16:33;;;;;;;;;;;;;;;4.83;100.00;100124.81;5031963;28;871;-60
2024/03/16 03:19:00;;;;;;;;;;;;;;;4.75;100.00;100127.72;5031798;28;863;-59
2024/03/16 03:21:28;;;;;;;;;;;;;;;4.58;100.00;100134.38;5031792;28;828;-59
2024/03/16 03:23:56;;;;;;;;;;;;;;;4.47;100.00;100134.88;5032597;28;864;-59
2024/03/16 03:26:23;;;;;;;;;;;;;;;4.38;100.00;100141.69;5014321;28;1267;-59
2024/03/16 03:28:50;;;;;;;;;;;;;;;4.33;100.00;100139.22;5031997;28;872;-59
2024/03/16 03:31:17;;;;;;;;;;;;;;;4.31;100.00;100139.56;5031857;28;863;-59
2024/03/16 03:33:44;;;;;;;;;;;;;;;4.33;100.00;100137.25;5031965;28;1956;-59
2024/03/16 03:36:11;;;;;;;;;;;;;;;4.37;100.00;100143.63;5031740;28;1321;-59
2024/03/16 03:38:38;;;;;;;;;;;;;;;4.43;100.00;100144.94;5032338;28;808;-59
2024/03/16 03:41:05;;;;;;;;;;;;;;;4.47;100.00;100147.78;5031641;28;1228;-60
2024/03/16 03:43:33;;;;;;;;;;;;;;;4.48;100.00;100152.91;5032308;28;780;-59
2024/03/16 03:46:00;;;;;;;;;;;;;;;4.49;100.00;100153.72;5031918;28;828;-59
2024/03/16 03:48:36;;;;;;;;;;;;;;;4.52;100.00;100152.19;5031813;28;1214;-59
2024/03/16 03:51:03;;;;;;;;;;;;;;;4.56;100.00;100153.09;5031454;28;926;-60
2024/03/16 03:53:31;;;;;;;;;;;;;;;4.60;100.00;100153.97;5031388;28;1882;-59
2024/03/16 03:55:59;;;;;;;;;;;;;;;4.63;100.00;100153.25;5031524;28;883;-59
2024/03/16 03:58:27;;;;;;;;;;;;;;;4.65;100.00;100157.25;5031566;28;844;-60
2024/03/16 04:00:54;;;;;;;;;;;;;;;4.67;100.00;100152.22;5031436;28;843;-59
2024/03/16 04:03:20;;;;;;;;;;;;;;;4.67;100.00;100143.19;5031478;28;859;-59
2024/03/16 04:05:53;;;;;;;;;;;;;;;4.69;100.00;100151.84;5013585;28;1239;-59
2024/03/16 04:08:20;;;;;;;;;;;;;;;4.68;100.00;100153.00;5031365;28;875;-60
2024/03/16 04:10:47;;;;;;;;;;;;;;;4.68;100.00;100142.84;5013879;28;1233;-60
2024/03/16 04:13:14;;;;;;;;;;;;;;;4.70;100.00;100156.19;5031067;28;1976;-60
2024/03/16 04:15:41;;;;;;;;;;;;;;;4.73;100.00;100149.97;5031291;28;817;-60
2024/03/16 04:18:08;;;;;;;;;;;;;;;4.75;100.00;100152.38;5031222;28;808;-60
2024/03/16 04:20:35;;;;;;;;;;;;;;;4.76;100.00;100157.50;5033784;28;983;-60
2024/03/16 04:23:02;;;;;;;;;;;;;;;4.77;100.00;100161.03;5034854;28;891;-59
2024/03/16 04:25:29;;;;;;;;;;;;;;;4.77;100.00;100156.34;5034896;28;840;-59
2024/03/16 04:27:56;;;;;;;;;;;;;;;4.81;100.00;100161.91;5034820;28;816;-59
2024/03/16 04:30:23;;;;;;;;;;;;;;;4.84;100.00;100153.78;5016936;28;1349;-59
2024/03/16 04:32:50;;;;;;;;;;;;;;;4.93;100.00;100167.31;5034714;28;1013;-59
2024/03/16 04:35:17;;;;;;;;;;;;;;;4.98;100.00;100155.28;5034566;28;1890;-60
2024/03/16 04:37:43;;;;;;;;;;;;;;;5.04;100.00;100173.81;5034659;28;859;-59
2024/03/16 04:40:11;;;;;;;;;;;;;;;5.08;100.00;100177.44;5034541;28;883;-59
2024/03/16 04:42:38;;;;;;;;;;;;;;;5.11;100.00;100178.66;5034581;28;976;-60
2024/03/16 04:45:05;;;;;;;;;;;;;;;5.16;100.00;100178.38;5034454;28;863;-60
2024/03/16 04:47:32;;;;;;;;;;;;;;;5.22;100.00;100184.38;5016709;28;1335;-59
2024/03/16 04:49:59;;;;;;;;;;;;;;;5.22;100.00;100185.19;5034389;28;911;-59
2024/03/16 04:52:26;;;;;;;;;;;;;;;5.21;100.00;100189.09;5016744;28;1649;-59
2024/03/16 04:54:53;;;;;;;;;;;;;;;5.22;100.00;100192.63;5034148;28;1953;-59
2024/03/16 04:57:20;;;;;;;;;;;;;;;5.24;100.00;100191.09;5016564;28;1307;-59
2024/03/16 04:59:46;;;;;;;;;;;;;;;5.27;100.00;100190.41;5016469;28;1335;-59
2024/03/16 05:02:13;;;;;;;;;;;;;;;5.12;100.00;100196.69;5034183;28;903;-59
2024/03/16 05:04:40;;;;;;;;;;;;;;;5.04;100.00;100192.22;5034174;28;883;-59
2024/03/16 05:07:06;;;;;;;;;;;;;;;5.04;100.00;100203.16;5034044;28;852;-58
2024/03/16 05:09:33;;;;;;;;;;;;;;;5.12;100.00;100199.41;5016245;28;1229;-58
2024/03/16 05:12:00;;;;;;;;;;;;;;;5.21;100.00;100211.00;5033875;28;1059;-59
2024/03/16 05:14:27;;;;;;;;;;;;;;;5.28;100.00;100204.91;5033605;28;1952;-58
2024/03/16 05:16:54;;;;;;;;;;;;;;;5.26;100.00;100204.47;5033932;28;903;-58
2024/03/16 05:19:20;;;;;;;;;;;;;;;5.22;100.00;100201.63;5033857;28;844;-58
2024/03/16 05:21:47;;;;;;;;;;;;;;;5.27;100.00;100209.59;5033920;28;973;-58
2024/03/16 05:24:14;;;;;;;;;;;;;;;5.39;100.00;100197.69;5033589;28;915;-58
2024/03/16 05:26:40;;;;;;;;;;;;;;;5.52;100.00;100199.16;5033786;28;848;-59
2024/03/16 05:29:07;;;;;;;;;;;;;;;5.61;100.00;100201.72;5033626;28;907;-58
2024/03/16 05:31:33;;;;;;;;;;;;;;;5.76;100.00;100204.75;5032843;28;852;-58
2024/03/16 05:33:58;;;;;;;;;;;;;;;5.88;100.00;100194.44;5033518;28;1906;-58
2024/03/16 05:36:25;;;;;;;;;;;;;;;5.95;100.00;100206.72;5033492;28;983;-58
2024/03/16 05:38:53;;;;;;;;;;;;;;;5.93;100.00;100209.81;5033593;28;864;-59
2024/03/16 05:41:20;;;;;;;;;;;;;;;5.95;100.00;100209.47;5033642;28;848;-58
2024/03/16 05:43:47;;;;;;;;;;;;;;;5.95;100.00;100209.47;5033490;28;984;-59
2024/03/16 05:46:14;;;;;;;;;;;;;;;6.03;100.00;100205.72;5033348;28;982;-58
2024/03/16 05:48:40;;;;;;;;;;;;;;;6.12;100.00;100212.59;5033669;28;824;-58
2024/03/16 05:51:07;;;;;;;;;;;;;;;6.27;100.00;100210.91;5033236;28;878;-58
2024/03/16 05:53:34;;;;;;;;;;;;;;;6.42;100.00;100216.66;5033235;28;1890;-58
2024/03/16 05:56:00;;;;;;;;;;;;;;;6.60;100.00;100222.50;5033334;28;857;-58
2024/03/16 05:58:28;;;;;;;;;;;;;;;6.66;100.00;100216.31;5033381;28;983;-58
2024/03/16 06:00:56;;;;;;;;;;;;;;;6.77;100.00;100218.47;5033169;28;895;-58
2024/03/16 06:03:21;;;;;;;;;;;;;;;6.87;100.00;100212.34;5032934;28;943;-58
2024/03/16 06:05:48;;;;;;;;;;;;;;;7.00;100.00;100210.19;5033015;28;848;-59
2024/03/16 06:08:15;;;;;;;;;;;;;;;7.15;100.00;100220.28;5032969;28;832;-58
2024/03/16 06:10:41;;;;;;;;;;;;;;;7.26;100.00;100214.94;5032922;28;825;-58
2024/03/16 06:13:10;;;;;;;;;;;;;;;7.34;100.00;100224.88;5032693;28;1953;-59
2024/03/16 06:15:39;;;;;;;;;;;;;;;7.39;100.00;100221.00;5031636;28;876;-58
2024/03/16 06:18:05;;;;;;;;;;;;;;;7.42;100.00;100225.75;5032630;28;872;-58
2024/03/16 06:20:32;;;;;;;;;;;;;;;7.50;100.00;100224.72;5032844;28;927;-58
2024/03/16 06:22:59;;;;;;;;;;;;;;;7.55;100.00;100214.19;5032669;28;891;-58
2024/03/16 06:25:29;;;;;;;;;;;;;;;7.60;100.00;100224.06;5032585;28;824;-59
2024/03/16 06:28:05;;;;;;;;;;;;;;;7.53;100.00;100219.25;5032499;28;950;-58
2024/03/16 06:30:32;;;;;;;;;;;;;;;7.45;100.00;100228.56;5032403;28;892;-58
2024/03/16 06:33:11;;;;;;;;;;;;;;;7.42;100.00;100232.06;5032347;28;1905;-58
2024/03/16 06:35:41;;;;;;;;;;;;;;;7.47;100.00;100230.97;5032299;28;927;-58
2024/03/16 06:38:11;;;;;;;;;;;;;;;7.55;100.00;100233.44;5032325;28;883;-58
2024/03/16 06:40:37;;;;;;;;;;;;;;;7.54;100.00;100233.81;5032466;28;820;-58
2024/03/16 06:43:04;;;;;;;;;;;;;;;7.49;100.00;100240.44;5032332;28;856;-58
2024/03/16 06:45:31;;;;;;;;;;;;;;;7.47;100.00;100242.75;5032318;28;894;-58
2024/03/16 06:47:57;;;;;;;;;;;;;;;7.48;100.00;100241.56;5032134;28;927;-58
2024/03/16 06:50:24;;;;;;;;;;;;;;;7.46;100.00;100245.88;5032233;28;848;-58
2024/03/16 06:52:50;;;;;;;;;;;;;;;7.52;100.00;100255.38;5032266;28;848;-58
2024/03/16 06:55:17;;;;;;;;;;;;;;;7.59;100.00;100257.44;5032259;28;1944;-59
2024/03/16 06:57:44;;;;;;;;;;;;;;;7.74;100.00;100259.22;5014361;28;872;-59
2024/03/16 07:00:11;;;;;;;;;;;;;;;7.88;100.00;100258.66;5032037;28;927;-58
2024/03/16 07:02:38;;;;;;;;;;;;;;;7.93;100.00;100267.34;5032042;28;832;-59
2024/03/16 07:05:10;;;;;;;;;;;;;;;7.93;100.00;100261.06;5031952;28;934;-58
2024/03/16 07:07:37;;;;;;;;;;;;;;;8.04;100.00;100266.69;5031949;28;982;-58
2024/03/16 07:10:06;;;;;;;;;;;;;;;8.16;100.00;100269.22;5032064;28;840;-59
2024/03/16 07:12:33;;;;;;;;;;;;;;;8.42;100.00;100273.09;5032002;28;907;-59
2024/03/16 07:15:00;;;;;;;;;;;;;;;8.52;100.00;100266.91;5031643;28;1886;-58
2024/03/16 07:17:31;;;;;;;;;;;;;;;8.58;100.00;100270.91;5031788;28;872;-58
2024/03/16 07:19:57;;;;;;;;;;;;;;;8.67;100.00;100267.84;5031879;28;885;-58
2024/03/16 07:22:24;;;;;;;;;;;;;;;8.85;100.00;100271.56;5031838;28;911;-58
2024/03/16 07:24:50;;;;;;;;;;;;;;;8.83;100.00;100276.66;5031776;28;931;-58
2024/03/16 07:27:17;;;;;;;;;;;;;;;8.91;100.00;100285.81;5014140;28;947;-58
2024/03/16 07:29:44;;;;;;;;;;;;;;;8.99;100.00;100279.19;5031639;28;844;-58
2024/03/16 07:32:11;;;;;;;;;;;;;;;8.96;100.00;100288.19;5031699;28;876;-59
2024/03/16 07:34:37;;;;;;;;;;;;;;;8.95;100.00;100281.13;5031585;28;1969;-58
2024/03/16 07:37:04;;;;;;;;;;;;;;;8.94;100.00;100285.03;5031968;28;1175;-58
2024/03/16 07:39:31;;;;;;;;;;;;;;;9.01;100.00;100289.84;5031742;28;907;-58
2024/03/16 07:41:57;;;;;;;;;;;;;;;9.22;100.00;100280.94;5031579;28;894;-57
2024/03/16 07:44:24;;;;;;;;;;;;;;;9.58;100.00;100291.09;5031512;28;892;-58
2024/03/16 07:46:50;;;;;;;;;;;;;;;10.00;100.00;100292.50;5031605;28;871;-58
2024/03/16 07:49:17;;;;;;;;;;;;;;;10.50;100.00;100280.94;5031499;28;889;-58
2024/03/16 07:51:44;;;;;;;;;;;;;;;10.71;100.00;100290.44;5031558;28;816;-58
2024/03/16 07:54:13;;;;;;;;;;;;;;;10.96;100.00;100302.34;5032012;28;1906;-58
2024/03/16 07:56:39;;;;;;;;;;;;;;;11.34;100.00;100288.16;5035458;28;887;-58
2024/03/16 07:59:09;;;;;;;;;;;;;;;11.68;100.00;100277.44;5035535;28;887;-59
2024/03/16 08:01:36;;;;;;;;;;;;;;;11.92;100.00;100280.56;5035173;28;880;-58
2024/03/16 08:04:03;;;;;;;;;;;;;;;12.08;100.00;100289.22;5017805;28;840;-59
2024/03/16 08:06:30;;;;;;;;;;;;;;;12.34;100.00;100287.94;5035314;28;919;-59
2024/03/16 08:08:57;;;;;;;;;;;;;;;12.26;100.00;100289.16;5035211;28;991;-59
2024/03/16 08:11:23;;;;;;;;;;;;;;;12.16;100.00;100281.66;5035280;28;919;-58
2024/03/16 08:13:50;;;;;;;;;;;;;;;11.85;100.00;100287.66;5035045;28;1953;-59
2024/03/16 08:16:16;;;;;;;;;;;;;;;12.07;100.00;100284.09;5035190;28;906;-59
2024/03/16 08:18:44;;;;;;;;;;;;;;;12.16;100.00;100285.25;5035048;28;891;-58
2024/03/16 08:21:14;;;;;;;;;;;;;;;12.50;100.00;100278.34;5034993;28;969;-59
2024/03/16 08:23:41;;;;;;;;;;;;;;;12.74;100.00;100277.44;5035060;28;848;-58
2024/03/16 08:26:09;;;;;;;;;;;;;;;12.68;100.00;100270.75;5035040;28;866;-59
2024/03/16 08:28:35;;;;;;;;;;;;;;;12.36;100.00;100280.00;5034766;28;1042;-59
2024/03/16 08:31:03;;;;;;;;;;;;;;;12.36;100.00;100280.00;5034703;28;967;-59
2024/03/16 08:33:29;;;;;;;;;;;;;;;12.76;100.00;100272.28;5034743;28;1922;-59
2024/03/16 08:35:56;;;;;;;;;;;;;;;13.01;100.00;100274.06;5034837;28;841;-59
2024/03/16 08:38:24;;;;;;;;;;;;;;;12.87;100.00;100275.75;5034813;28;840;-59
2024/03/16 08:40:50;;;;;;;;;;;;;;;12.95;100.00;100268.19;5034592;28;965;-59
2024/03/16 08:43:17;;;;;;;;;;;;;;;13.02;100.00;100275.66;5034720;28;831;-59
2024/03/16 08:45:43;;;;;;;;;;;;;;;12.70;100.00;100271.13;5034576;28;891;-59
2024/03/16 08:48:09;;;;;;;;;;;;;;;12.66;100.00;100273.13;5034568;28;804;-59
2024/03/16 08:50:37;;;;;;;;;;;;;;;12.41;100.00;100279.56;5034484;28;883;-59
2024/03/16 08:53:04;;;;;;;;;;;;;;;12.17;100.00;100272.19;5034402;28;1890;-59
2024/03/16 08:55:31;;;;;;;;;;;;;;;12.01;100.00;100276.19;5034300;28;812;-60
2024/03/16 08:57:57;;;;;;;;;;;;;;;11.92;100.00;100278.56;5034376;28;969;-59
2024/03/16 09:00:25;;;;;;;;;;;;;;;11.99;100.00;100278.56;5034287;28;940;-59
2024/03/16 09:02:52;;;;;;;;;;;;;;;11.93;100.00;100274.63;5034217;28;844;-59
2024/03/16 09:05:18;;;;;;;;;;;;;;;12.01;100.00;100269.84;5033815;28;832;-59
2024/03/16 09:07:45;;;;;;;;;;;;;;;12.10;100.00;100274.97;5033377;28;867;-60
2024/03/16 09:10:12;;;;;;;;;;;;;;;12.23;100.00;100273.34;5034357;28;812;-60
2024/03/16 09:12:38;;;;;;;;;;;;;;;12.25;100.00;100268.19;5034373;28;1045;-60
2024/03/16 09:15:06;;;;;;;;;;;;;;;12.63;100.00;100273.91;5033847;28;1906;-60
2024/03/16 09:17:36;;;;;;;;;;;;;;;13.36;100.00;100269.47;5033897;28;919;-60
2024/03/16 09:20:10;;;;;;;;;;;;;;;13.69;99.39;100273.50;5016167;28;886;-60
2024/03/16 09:22:36;;;;;;;;;;;;;;;13.76;97.48;100272.66;5033768;28;868;-60
2024/03/16 09:25:06;;;;;;;;;;;;;;;14.02;96.30;100271.19;5034124;28;860;-60
2024/03/16 09:27:35;;;;;;;;;;;;;;;14.18;98.33;100270.59;5033792;28;888;-60
2024/03/16 09:30:11;;;;;;;;;;;;;;;14.17;97.44;100269.03;5033762;28;1405;-60
2024/03/16 09:32:37;;;;;;;;;;;;;;;14.13;100.00;100271.84;5033548;28;931;-60
2024/03/16 09:35:06;;;;;;;;;;;;;;;13.67;98.21;100271.13;5033570;28;1906;-60
2024/03/16 09:37:32;;;;;;;;;;;;;;;13.03;99.93;100269.69;5033530;28;919;-61
2024/03/16 09:39:59;;;;;;;;;;;;;;;12.99;100.00;100280.03;5033655;28;824;-60
2024/03/16 10:13:29;;;;;;;;;;;;;;;13.03;100.00;100272.47;5461265;22;1961;-50
2024/03/16 10:15:56;;;;;;;;;;;;;;;13.04;100.00;100270.50;5052829;28;847;-51
2024/03/16 10:18:23;;;;;;;;;;;;;;;13.12;100.00;100269.25;5052492;28;1227;-56
2024/03/16 10:20:50;;;;;;;;;;;;;;;13.39;100.00;100271.44;5052499;28;978;-55
2024/03/16 10:23:19;;;;;;;;;;;;;;;13.42;100.00;100265.03;5052490;28;852;-55
